createdAt,value
2018-11-21T00:00:11.884Z,97673.19
2018-11-21T00:02:40.777Z,97679.10
2018-11-21T00:05:09.221Z,97688.02
2018-11-21T00:07:38.012Z,97682.33
2018-11-21T00:10:09.256Z,97681.98
2018-11-21T00:12:38.522Z,97684.50
2018-11-21T00:15:09.185Z,97693.23
2018-11-21T00:17:37.644Z,97694.92
2018-11-21T00:20:07.518Z,97692.95
2018-11-21T00:22:36.004Z,97683.65
2018-11-21T00:25:04.480Z,97683.62
2018-11-21T00:27:32.962Z,97680.13
2018-11-21T00:30:01.912Z,97669.81
2018-11-21T00:32:30.671Z,97682.47
2018-11-21T00:34:59.178Z,97683.62
2018-11-21T00:37:27.625Z,97690.70
2018-11-21T00:39:56.182Z,97687.52
2018-11-21T00:42:24.693Z,97680.80
2018-11-21T00:44:53.175Z,97685.41
2018-11-21T00:47:21.675Z,97684.48
2018-11-21T00:49:50.137Z,97689.14
2018-11-21T00:52:18.614Z,97695.34
2018-11-21T00:54:47.071Z,97697.07
2018-11-21T00:57:15.551Z,97694.48
2018-11-21T00:59:44.033Z,97699.28
2018-11-21T01:02:12.952Z,97712.78
2018-11-21T01:04:41.565Z,97709.41
2018-11-21T01:07:10.014Z,97709.98
2018-11-21T01:09:39.292Z,97712.78
2018-11-21T01:12:07.772Z,97717.27
2018-11-21T01:14:36.298Z,97722.69
2018-11-21T01:17:04.817Z,97727.14
2018-11-21T01:19:33.316Z,97725.66
2018-11-21T01:22:01.760Z,97713.84
2018-11-21T01:24:30.246Z,97711.89
2018-11-21T01:26:58.700Z,97716.44
2018-11-21T01:29:27.206Z,97716.55
2018-11-21T01:31:55.725Z,97717.90
2018-11-21T01:34:24.206Z,97712.53
2018-11-21T01:36:53.030Z,97723.52
2018-11-21T01:39:21.948Z,97723.14
2018-11-21T01:41:50.446Z,97720.27
2018-11-21T01:44:19.000Z,97722.63
2018-11-21T01:46:47.482Z,97719.38
2018-11-21T01:49:15.936Z,97720.72
2018-11-21T01:51:44.446Z,97721.48
2018-11-21T01:54:12.935Z,97719.63
2018-11-21T01:56:41.421Z,97717.71
2018-11-21T01:59:10.209Z,97705.79
2018-11-21T02:01:38.678Z,97707.16
2018-11-21T02:04:07.168Z,97698.47
2018-11-21T02:06:35.870Z,97700.17
2018-11-21T02:09:06.835Z,97696.30
2018-11-21T02:11:35.292Z,97693.11
2018-11-21T02:14:03.835Z,97697.45
2018-11-21T02:16:33.637Z,97692.41
2018-11-21T02:19:02.087Z,97697.91
2018-11-21T02:21:30.577Z,97704.64
2018-11-21T02:23:59.075Z,97711.44
2018-11-21T02:26:27.706Z,97700.84
2018-11-21T02:28:56.140Z,97710.14
2018-11-21T02:31:24.606Z,97714.70
2018-11-21T02:33:53.762Z,97712.02
2018-11-21T02:36:22.273Z,97707.58
2018-11-21T02:38:50.795Z,97709.34
2018-11-21T02:41:19.334Z,97713.82
2018-11-21T02:43:47.753Z,97711.97
2018-11-21T02:46:16.225Z,97713.97
2018-11-21T02:48:44.699Z,97712.30
2018-11-21T02:51:13.167Z,97712.04
2018-11-21T02:53:41.644Z,97716.33
2018-11-21T02:56:10.522Z,97721.34
2018-11-21T02:58:39.000Z,97718.10
2018-11-21T03:01:07.467Z,97728.81
2018-11-21T03:03:35.912Z,97723.91
2018-11-21T03:06:05.236Z,97719.38
2018-11-21T03:08:33.687Z,97719.16
2018-11-21T03:11:02.162Z,97725.08
2018-11-21T03:13:30.617Z,97732.45
2018-11-21T03:15:59.151Z,97726.86
2018-11-21T03:18:27.645Z,97730.02
2018-11-21T03:20:58.709Z,97740.88
2018-11-21T03:23:27.205Z,97739.23
2018-11-21T03:25:55.725Z,97738.59
2018-11-21T03:28:24.199Z,97737.79
2018-11-21T03:30:52.661Z,97740.30
2018-11-21T03:33:21.134Z,97737.75
2018-11-21T03:35:49.887Z,97751.45
2018-11-21T03:38:18.373Z,97754.53
2018-11-21T03:40:46.934Z,97755.69
2018-11-21T03:43:15.360Z,97749.84
2018-11-21T03:45:43.843Z,97762.12
2018-11-21T03:48:12.590Z,97762.23
2018-11-21T03:50:41.135Z,97775.13
2018-11-21T03:53:09.967Z,97761.27
2018-11-21T03:55:38.524Z,97763.31
2018-11-21T03:58:07.000Z,97754.63
2018-11-21T04:00:35.499Z,97765.38
2018-11-21T04:03:03.960Z,97769.89
2018-11-21T04:05:32.785Z,97771.93
2018-11-21T04:08:01.277Z,97760.59
2018-11-21T04:10:29.814Z,97767.97
2018-11-21T04:12:58.327Z,97772.25
2018-11-21T04:15:26.771Z,97784.64
2018-11-21T04:17:55.260Z,97788.06
2018-11-21T04:20:23.716Z,97793.98
2018-11-21T04:22:52.392Z,97792.70
2018-11-21T04:25:22.243Z,97792.20
2018-11-21T04:27:51.059Z,97793.94
2018-11-21T04:30:19.516Z,97793.03
2018-11-21T04:32:47.980Z,97795.54
2018-11-21T04:35:16.445Z,97797.42
2018-11-21T04:37:44.912Z,97801.93
2018-11-21T04:40:13.397Z,97805.09
2018-11-21T04:42:41.881Z,97808.47
2018-11-21T04:45:11.002Z,97802.91
2018-11-21T04:47:45.009Z,97807.59
2018-11-21T04:50:14.419Z,97809.09
2018-11-21T04:52:42.905Z,97811.96
2018-11-21T04:55:11.711Z,97810.25
2018-11-21T04:57:40.528Z,97817.55
2018-11-21T05:00:10.491Z,97812.22
2018-11-21T05:02:39.107Z,97810.28
2018-11-21T05:05:09.198Z,97814.03
2018-11-21T05:07:37.679Z,97808.55
2018-11-21T05:10:07.738Z,97815.55
2018-11-21T05:12:36.907Z,97826.81
2018-11-21T05:15:06.026Z,97821.34
2018-11-21T05:17:34.483Z,97817.05
2018-11-21T05:20:02.984Z,97821.36
2018-11-21T05:22:31.463Z,97826.75
2018-11-21T05:25:00.050Z,97823.36
2018-11-21T05:27:28.507Z,97835.61
2018-11-21T05:29:56.968Z,97833.80
2018-11-21T05:32:25.432Z,97843.28
2018-11-21T05:34:53.890Z,97848.01
2018-11-21T05:37:22.738Z,97854.30
2018-11-21T05:39:52.269Z,97850.07
2018-11-21T05:42:21.089Z,97852.66
2018-11-21T05:44:49.550Z,97854.86
2018-11-21T05:47:18.394Z,97859.08
2018-11-21T05:49:47.118Z,97861.67
2018-11-21T05:52:16.111Z,97854.95
2018-11-21T05:54:45.798Z,97858.47
2018-11-21T05:57:14.945Z,97864.03
2018-11-21T05:59:43.744Z,97858.33
2018-11-21T06:02:12.845Z,97863.12
2018-11-21T06:04:41.690Z,97854.95
2018-11-21T06:07:10.475Z,97855.70
2018-11-21T06:09:40.476Z,97861.34
2018-11-21T06:12:08.936Z,97860.33
2018-11-21T06:14:37.414Z,97871.02
2018-11-21T06:17:06.528Z,97871.59
2018-11-21T06:19:35.196Z,97871.44
2018-11-21T06:22:03.859Z,97882.02
2018-11-21T06:24:32.359Z,97874.79
2018-11-21T06:27:02.520Z,97874.61
2018-11-21T06:29:31.044Z,97875.88
2018-11-21T06:31:59.863Z,97880.26
2018-11-21T06:34:32.757Z,97882.45
2018-11-21T06:36:59.241Z,97883.40
2018-11-21T06:39:27.703Z,97880.75
2018-11-21T06:41:58.328Z,97883.88
2018-11-21T06:44:26.811Z,97890.86
2018-11-21T06:46:55.358Z,97891.52
2018-11-21T06:49:23.849Z,97905.80
2018-11-21T06:51:52.358Z,97912.63
2018-11-21T06:54:20.845Z,97894.45
2018-11-21T06:56:49.318Z,97893.20
2018-11-21T06:59:17.756Z,97895.94
2018-11-21T07:01:46.248Z,97897.07
2018-11-21T07:04:14.723Z,97897.66
2018-11-21T07:06:43.208Z,97903.47
2018-11-21T07:09:12.268Z,97902.23
2018-11-21T07:11:40.760Z,97910.26
2018-11-21T07:14:09.515Z,97906.48
2018-11-21T07:16:38.944Z,97909.94
2018-11-21T07:19:07.432Z,97911.81
2018-11-21T07:21:35.906Z,97912.91
2018-11-21T07:24:04.519Z,97914.88
2018-11-21T07:26:33.002Z,97918.59
2018-11-21T07:29:01.829Z,97917.17
2018-11-21T07:31:30.296Z,97920.30
2018-11-21T07:33:58.807Z,97914.63
2018-11-21T07:36:27.309Z,97921.28
2018-11-21T07:38:57.738Z,97925.64
2018-11-21T07:41:26.245Z,97933.68
2018-11-21T07:43:54.692Z,97938.23
2018-11-21T07:46:25.352Z,97930.59
2018-11-21T07:48:53.808Z,97927.82
2018-11-21T07:51:22.289Z,97935.79
2018-11-21T07:53:50.827Z,97938.59
2018-11-21T07:57:10.314Z,97937.14
2018-11-21T07:59:38.788Z,97940.44
2018-11-21T08:02:15.236Z,97941.39
2018-11-21T08:04:56.737Z,97957.61
2018-11-21T08:07:44.264Z,97949.03
2018-11-21T08:10:40.886Z,97957.23
2018-11-21T08:13:31.140Z,97963.27
2018-11-21T08:16:37.022Z,97955.67
2018-11-21T08:19:31.043Z,97954.81
2018-11-21T08:22:14.614Z,97963.77
2018-11-21T08:25:11.425Z,97958.87
2018-11-21T08:27:57.565Z,97960.98
2018-11-21T08:30:26.019Z,97966.61
2018-11-21T08:32:54.496Z,97969.12
2018-11-21T08:35:22.960Z,97968.88
2018-11-21T08:37:51.445Z,97979.12
2018-11-21T08:40:19.899Z,97978.72
2018-11-21T08:42:48.698Z,97982.91
2018-11-21T08:45:17.783Z,97989.55
2018-11-21T08:47:46.259Z,97985.73
2018-11-21T08:50:16.342Z,97995.13
2018-11-21T08:52:44.798Z,97993.55
2018-11-21T08:55:13.572Z,97999.52
2018-11-21T08:57:42.018Z,98001.20
2018-11-21T09:00:12.212Z,98005.80
2018-11-21T09:02:40.870Z,98005.79
2018-11-21T09:05:10.839Z,98009.58
2018-11-21T09:07:40.478Z,98012.55
2018-11-21T09:10:12.013Z,98012.27
2018-11-21T09:12:40.939Z,98011.11
2018-11-21T09:15:16.856Z,98008.59
2018-11-21T09:17:45.884Z,98015.08
2018-11-21T09:20:14.474Z,98021.38
2018-11-21T09:22:43.329Z,98017.77
2018-11-21T09:25:12.660Z,98019.09
2018-11-21T09:27:41.851Z,98028.18
2018-11-21T09:30:12.238Z,98020.28
2018-11-21T09:32:41.101Z,98027.84
2018-11-21T09:35:11.453Z,98021.67
2018-11-21T09:37:39.922Z,98031.18
2018-11-21T09:40:10.385Z,98032.61
2018-11-21T09:42:39.638Z,98032.44
2018-11-21T09:45:09.855Z,98031.22
2018-11-21T09:47:38.313Z,98035.06
2018-11-21T09:50:10.087Z,98038.73
2018-11-21T09:52:38.736Z,98040.58
2018-11-21T09:55:07.328Z,98043.05
2018-11-21T09:57:35.789Z,98049.63
2018-11-21T10:00:22.826Z,98038.46
2018-11-21T10:03:21.724Z,98044.69
2018-11-21T10:06:01.944Z,98039.36
2018-11-21T10:08:35.931Z,98038.05
2018-11-21T10:11:04.438Z,98042.25
2018-11-21T10:13:33.293Z,98037.13
2018-11-21T10:16:04.468Z,98030.30
2018-11-21T10:18:33.330Z,98030.81
2018-11-21T10:21:02.252Z,98028.08
2018-11-21T10:23:30.743Z,98025.35
2018-11-21T10:25:59.256Z,98033.30
2018-11-21T10:28:27.769Z,98021.90
2018-11-21T10:30:56.381Z,98024.84
2018-11-21T10:33:24.862Z,98018.81
2018-11-21T10:35:53.570Z,98015.91
2018-11-21T10:38:22.169Z,98020.16
2018-11-21T10:40:51.000Z,98011.95
2018-11-21T10:43:19.435Z,98018.02
2018-11-21T10:45:47.913Z,98019.41
2018-11-21T10:48:16.745Z,98010.23
2018-11-21T10:50:45.231Z,98015.62
2018-11-21T10:53:13.885Z,98009.45
2018-11-21T10:55:42.400Z,98010.55
2018-11-21T10:58:10.877Z,98006.23
2018-11-21T11:00:58.709Z,98008.03
2018-11-21T11:03:29.314Z,98004.43
2018-11-21T11:06:22.763Z,98005.08
2018-11-21T11:09:11.118Z,98006.36
2018-11-21T11:11:59.950Z,98007.27
2018-11-21T11:14:46.243Z,98004.48
2018-11-21T11:17:33.789Z,98003.67
2018-11-21T11:20:26.996Z,98001.83
2018-11-21T11:23:08.545Z,98007.73
2018-11-21T11:26:01.986Z,98006.03
2018-11-21T11:29:04.536Z,98002.16
2018-11-21T11:31:54.859Z,98009.92
2018-11-21T11:34:40.822Z,98002.53
2018-11-21T11:37:26.806Z,97994.03
2018-11-21T11:40:13.137Z,98005.02
2018-11-21T11:42:59.275Z,98009.27
2018-11-21T11:45:55.676Z,98010.70
2018-11-21T11:48:46.427Z,98002.41
2018-11-21T11:51:42.989Z,97999.73
2018-11-21T11:54:27.517Z,98004.03
2018-11-21T11:57:30.095Z,98002.92
2018-11-21T12:00:20.242Z,98004.41
2018-11-21T12:03:05.386Z,98009.13
2018-11-21T12:05:52.933Z,98018.20
2018-11-21T12:08:35.317Z,98011.42
2018-11-21T12:11:24.177Z,98008.70
2018-11-21T12:14:18.482Z,98010.55
2018-11-21T12:17:05.993Z,98010.27
2018-11-21T12:20:01.987Z,98014.90
2018-11-21T12:23:05.580Z,98017.13
2018-11-21T12:26:10.362Z,98018.02
2018-11-21T12:28:51.962Z,98011.52
2018-11-21T12:31:29.874Z,98014.57
2018-11-21T12:34:20.133Z,98001.38
2018-11-21T12:37:26.400Z,98001.81
2018-11-21T12:40:12.599Z,98003.23
2018-11-21T12:43:15.100Z,97997.52
2018-11-21T12:46:01.370Z,97999.47
2018-11-21T12:48:39.858Z,98003.77
2018-11-21T12:51:39.552Z,98003.53
2018-11-21T12:54:33.914Z,97998.84
2018-11-21T12:57:20.211Z,97981.23
2018-11-21T13:00:01.128Z,97989.19
2018-11-21T13:02:54.526Z,97995.31
2018-11-21T13:05:40.955Z,98001.81
2018-11-21T13:08:36.729Z,97995.13
2018-11-21T13:11:30.145Z,98002.39
